createdAt,value
2022-11-28T00:06:53.763Z,24.00
2022-11-28T00:18:54.241Z,23.80
2022-11-28T00:30:54.665Z,22.20
2022-11-28T00:42:55.108Z,20.90
2022-11-28T00:54:55.607Z,17.90
2022-11-28T01:06:56.029Z,17.80
2022-11-28T01:18:56.432Z,19.50
2022-11-28T01:30:56.914Z,21.80
2022-11-28T01:42:57.391Z,18.70
2022-11-28T01:54:57.823Z,17.10
2022-11-28T02:06:58.289Z,16.70
2022-11-28T02:18:58.741Z,15.80
2022-11-28T02:30:59.278Z,16.60
2022-11-28T02:42:59.645Z,16.20
2022-11-28T02:55:00.088Z,16.80
2022-11-28T03:07:00.538Z,16.70
2022-11-28T03:19:01.005Z,17.20
2022-11-28T03:31:01.498Z,18.80
2022-11-28T03:43:01.850Z,19.30
2022-11-28T03:55:02.315Z,18.80
2022-11-28T04:07:02.761Z,16.20
2022-11-28T04:19:03.257Z,16.10
2022-11-28T04:31:03.678Z,16.40
2022-11-28T04:43:04.160Z,18.40
2022-11-28T04:55:04.607Z,19.30
2022-11-28T05:07:05.068Z,19.50
2022-11-28T05:19:05.489Z,18.40
2022-11-28T05:31:06.020Z,15.70
2022-11-28T05:43:06.463Z,17.20
2022-11-28T05:55:06.872Z,18.20
2022-11-28T06:07:07.330Z,16.10
2022-11-28T06:19:07.740Z,17.40
2022-11-28T06:31:08.205Z,16.30
2022-11-28T06:43:08.707Z,13.90
2022-11-28T06:55:09.094Z,13.90
2022-11-28T07:07:13.702Z,13.00
2022-11-28T07:19:10.049Z,14.70
2022-11-28T07:31:10.479Z,16.60
2022-11-28T07:43:10.928Z,14.50
2022-11-28T07:55:11.431Z,13.60
2022-11-28T08:07:11.907Z,13.40
2022-11-28T08:19:12.300Z,11.60
2022-11-28T08:31:12.795Z,13.00
2022-11-28T08:43:13.182Z,17.90
2022-11-28T08:55:13.697Z,15.70
2022-11-28T09:07:14.206Z,19.40
2022-11-28T09:19:14.558Z,14.20
2022-11-28T09:31:15.211Z,14.30
2022-11-28T09:43:15.517Z,13.10
2022-11-28T09:55:15.948Z,15.80
2022-11-28T10:07:16.426Z,16.90
2022-11-28T10:19:46.155Z,18.40
2022-11-28T10:31:17.351Z,17.20
2022-11-28T10:43:17.679Z,18.00
2022-11-28T10:55:18.194Z,16.40
2022-11-28T11:07:21.015Z,26.80
2022-11-28T11:19:19.096Z,17.50
2022-11-28T11:31:19.569Z,16.60
2022-11-28T11:43:19.965Z,15.20
2022-11-28T11:55:20.423Z,14.90
2022-11-28T12:07:20.980Z,16.50
2022-11-28T12:19:21.313Z,16.20
2022-11-28T12:31:21.847Z,15.70
2022-11-28T12:43:22.206Z,15.80
2022-11-28T12:55:22.715Z,16.70
2022-11-28T13:07:23.167Z,17.60
2022-11-28T13:19:23.634Z,18.90
2022-11-28T13:31:24.146Z,22.00
2022-11-28T13:43:24.513Z,19.70
2022-11-28T13:55:24.930Z,19.40
2022-11-28T14:07:25.458Z,19.40
2022-11-28T14:19:25.869Z,18.40
2022-11-28T14:31:26.321Z,20.40
2022-11-28T14:43:26.767Z,17.70
2022-11-28T14:55:27.177Z,18.80
2022-11-28T15:07:27.683Z,19.80
2022-11-28T15:19:28.121Z,20.30
2022-11-28T15:31:28.576Z,20.20
2022-11-28T15:43:29.004Z,23.70
2022-11-28T15:55:29.495Z,23.20
2022-11-28T16:07:29.914Z,25.00
2022-11-28T16:19:30.352Z,25.50
2022-11-28T16:31:31.059Z,26.90
2022-11-28T16:43:31.286Z,25.70
2022-11-28T16:55:31.736Z,26.80
2022-11-28T17:07:32.211Z,29.90
2022-11-28T17:19:32.604Z,28.30
2022-11-28T17:31:33.072Z,28.40
2022-11-28T17:43:37.557Z,27.90
2022-11-28T17:55:34.000Z,26.90
2022-11-28T18:07:34.446Z,25.90
2022-11-28T18:19:34.886Z,27.40
2022-11-28T18:31:35.390Z,26.50
2022-11-28T18:43:35.820Z,27.10
2022-11-28T18:55:36.215Z,25.50
2022-11-28T19:07:36.741Z,27.50
2022-11-28T19:19:37.132Z,28.90
2022-11-28T19:31:37.647Z,44.60
2022-11-28T19:43:38.042Z,28.00
2022-11-28T19:55:38.495Z,28.90
2022-11-28T20:07:39.004Z,27.50
2022-11-28T20:19:39.425Z,29.70
2022-11-28T20:31:39.882Z,33.20
2022-11-28T20:43:40.284Z,32.40
2022-11-28T20:55:40.751Z,30.10
2022-11-28T21:07:41.258Z,30.30
2022-11-28T21:19:41.979Z,29.40
2022-11-28T21:31:42.153Z,29.90
2022-11-28T21:43:42.579Z,31.00
2022-11-28T21:55:43.024Z,28.70
2022-11-28T22:07:43.525Z,28.10
2022-11-28T22:19:43.946Z,28.80
2022-11-28T22:31:44.398Z,26.70
2022-11-28T22:43:44.803Z,26.20
2022-11-28T22:55:45.264Z,27.00
2022-11-28T23:07:45.718Z,27.00
2022-11-28T23:19:46.197Z,28.00
2022-11-28T23:31:46.666Z,26.20
2022-11-28T23:43:47.101Z,27.50
2022-11-28T23:55:47.530Z,26.00
